sensor_id;sensor_type;location;lat;lon;timestamp;P1;durP1;ratioP1;P2;durP2;ratioP2
14276;SDS011;7222;57.346;12.150;2023-02-18T00:01:07;15.20;;;4.20;;
14276;SDS011;7222;57.346;12.150;2023-02-18T00:03:35;8.67;;;3.33;;
14276;SDS011;7222;57.346;12.150;2023-02-18T00:06:10;20.03;;;4.97;;
14276;SDS011;7222;57.346;12.150;2023-02-18T00:08:38;14.80;;;4.10;;
14276;SDS011;7222;57.346;12.150;2023-02-18T00:11:06;14.93;;;5.20;;
14276;SDS011;7222;57.346;12.150;2023-02-18T00:13:33;10.13;;;3.47;;
14276;SDS011;7222;57.346;12.150;2023-02-18T00:16:01;10.20;;;3.73;;
14276;SDS011;7222;57.346;12.150;2023-02-18T00:18:28;14.40;;;4.90;;
14276;SDS011;7222;57.346;12.150;2023-02-18T00:20:55;12.50;;;4.57;;
14276;SDS011;7222;57.346;12.150;2023-02-18T00:23:23;16.70;;;4.43;;
14276;SDS011;7222;57.346;12.150;2023-02-18T00:25:57;13.57;;;3.13;;
14276;SDS011;7222;57.346;12.150;2023-02-18T00:28:24;15.47;;;4.30;;
14276;SDS011;7222;57.346;12.150;2023-02-18T00:30:51;15.23;;;5.70;;
14276;SDS011;7222;57.346;12.150;2023-02-18T00:33:18;16.30;;;3.50;;
14276;SDS011;7222;57.346;12.150;2023-02-18T00:35:45;14.37;;;3.77;;
14276;SDS011;7222;57.346;12.150;2023-02-18T00:38:12;10.57;;;3.63;;
14276;SDS011;7222;57.346;12.150;2023-02-18T00:40:41;10.50;;;3.50;;
14276;SDS011;7222;57.346;12.150;2023-02-18T00:43:08;14.70;;;4.17;;
14276;SDS011;7222;57.346;12.150;2023-02-18T00:45:35;15.57;;;4.43;;
14276;SDS011;7222;57.346;12.150;2023-02-18T00:48:02;11.07;;;3.97;;
14276;SDS011;7222;57.346;12.150;2023-02-18T00:50:29;12.87;;;4.30;;
14276;SDS011;7222;57.346;12.150;2023-02-18T00:52:56;11.13;;;4.07;;
14276;SDS011;7222;57.346;12.150;2023-02-18T00:55:23;14.53;;;4.17;;
14276;SDS011;7222;57.346;12.150;2023-02-18T00:57:51;17.57;;;5.10;;
14276;SDS011;7222;57.346;12.150;2023-02-18T01:00:18;13.47;;;3.87;;
14276;SDS011;7222;57.346;12.150;2023-02-18T01:02:45;12.53;;;4.07;;
14276;SDS011;7222;57.346;12.150;2023-02-18T01:05:12;13.50;;;3.67;;
14276;SDS011;7222;57.346;12.150;2023-02-18T01:07:39;14.37;;;3.57;;
14276;SDS011;7222;57.346;12.150;2023-02-18T01:10:07;10.67;;;3.57;;
14276;SDS011;7222;57.346;12.150;2023-02-18T01:12:34;17.23;;;4.73;;
14276;SDS011;7222;57.346;12.150;2023-02-18T01:15:02;15.03;;;3.87;;
14276;SDS011;7222;57.346;12.150;2023-02-18T01:17:30;22.97;;;5.00;;
14276;SDS011;7222;57.346;12.150;2023-02-18T01:19:57;22.43;;;5.40;;
14276;SDS011;7222;57.346;12.150;2023-02-18T01:22:25;11.80;;;3.50;;
14276;SDS011;7222;57.346;12.150;2023-02-18T01:24:52;9.27;;;3.60;;
14276;SDS011;7222;57.346;12.150;2023-02-18T01:27:19;16.00;;;5.10;;
14276;SDS011;7222;57.346;12.150;2023-02-18T01:29:46;13.70;;;5.10;;
14276;SDS011;7222;57.346;12.150;2023-02-18T01:32:14;15.30;;;4.50;;
14276;SDS011;7222;57.346;12.150;2023-02-18T01:34:41;12.60;;;3.90;;
14276;SDS011;7222;57.346;12.150;2023-02-18T01:37:08;11.13;;;3.27;;
14276;SDS011;7222;57.346;12.150;2023-02-18T01:39:35;16.30;;;3.53;;
14276;SDS011;7222;57.346;12.150;2023-02-18T01:42:02;13.13;;;3.93;;
14276;SDS011;7222;57.346;12.150;2023-02-18T01:44:32;13.97;;;4.80;;
14276;SDS011;7222;57.346;12.150;2023-02-18T01:46:59;13.67;;;4.40;;
14276;SDS011;7222;57.346;12.150;2023-02-18T01:49:29;16.17;;;5.47;;
14276;SDS011;7222;57.346;12.150;2023-02-18T01:52:00;16.83;;;4.77;;
14276;SDS011;7222;57.346;12.150;2023-02-18T01:54:30;9.23;;;2.63;;
14276;SDS011;7222;57.346;12.150;2023-02-18T01:57:02;13.17;;;3.87;;
14276;SDS011;7222;57.346;12.150;2023-02-18T01:59:32;13.47;;;4.17;;
14276;SDS011;7222;57.346;12.150;2023-02-18T02:02:03;9.13;;;3.03;;
14276;SDS011;7222;57.346;12.150;2023-02-18T02:04:35;12.50;;;3.67;;
14276;SDS011;7222;57.346;12.150;2023-02-18T02:07:02;12.80;;;3.70;;
14276;SDS011;7222;57.346;12.150;2023-02-18T02:09:29;9.90;;;3.10;;
14276;SDS011;7222;57.346;12.150;2023-02-18T02:15:10;11.63;;;4.20;;
14276;SDS011;7222;57.346;12.150;2023-02-18T02:17:57;10.23;;;3.00;;
14276;SDS011;7222;57.346;12.150;2023-02-18T02:20:44;22.47;;;3.70;;
14276;SDS011;7222;57.346;12.150;2023-02-18T02:35:35;14.33;;;4.00;;
14276;SDS011;7222;57.346;12.150;2023-02-18T02:38:05;13.20;;;4.40;;
14276;SDS011;7222;57.346;12.150;2023-02-18T02:40:40;13.20;;;3.10;;
14276;SDS011;7222;57.346;12.150;2023-02-18T02:43:11;14.27;;;3.53;;
14276;SDS011;7222;57.346;12.150;2023-02-18T02:45:47;10.33;;;2.80;;
14276;SDS011;7222;57.346;12.150;2023-02-18T02:48:23;9.97;;;2.37;;
14276;SDS011;7222;57.346;12.150;2023-02-18T02:50:59;10.57;;;2.70;;
14276;SDS011;7222;57.346;12.150;2023-02-18T02:53:32;15.70;;;3.90;;
14276;SDS011;7222;57.346;12.150;2023-02-18T02:56:00;19.30;;;5.20;;
14276;SDS011;7222;57.346;12.150;2023-02-18T02:58:27;13.10;;;3.00;;
14276;SDS011;7222;57.346;12.150;2023-02-18T03:00:58;5.63;;;2.27;;
14276;SDS011;7222;57.346;12.150;2023-02-18T03:03:42;9.97;;;2.83;;
14276;SDS011;7222;57.346;12.150;2023-02-18T03:06:42;12.60;;;3.83;;
14276;SDS011;7222;57.346;12.150;2023-02-18T03:09:27;16.10;;;3.63;;
14276;SDS011;7222;57.346;12.150;2023-02-18T03:12:05;7.67;;;2.73;;
14276;SDS011;7222;57.346;12.150;2023-02-18T03:14:39;11.93;;;3.20;;
14276;SDS011;7222;57.346;12.150;2023-02-18T03:17:14;13.77;;;3.00;;
14276;SDS011;7222;57.346;12.150;2023-02-18T03:19:48;7.57;;;2.47;;
14276;SDS011;7222;57.346;12.150;2023-02-18T03:22:22;10.87;;;2.87;;
14276;SDS011;7222;57.346;12.150;2023-02-18T03:24:54;11.80;;;3.67;;
14276;SDS011;7222;57.346;12.150;2023-02-18T03:27:23;15.00;;;4.67;;
14276;SDS011;7222;57.346;12.150;2023-02-18T03:29:55;10.53;;;3.07;;
14276;SDS011;7222;57.346;12.150;2023-02-18T03:32:27;19.83;;;4.30;;
14276;SDS011;7222;57.346;12.150;2023-02-18T03:34:59;13.67;;;4.00;;
14276;SDS011;7222;57.346;12.150;2023-02-18T03:37:31;13.83;;;5.10;;
14276;SDS011;7222;57.346;12.150;2023-02-18T03:40:01;16.27;;;4.30;;
14276;SDS011;7222;57.346;12.150;2023-02-18T03:42:28;13.40;;;3.80;;
14276;SDS011;7222;57.346;12.150;2023-02-18T03:44:55;16.40;;;5.17;;
14276;SDS011;7222;57.346;12.150;2023-02-18T03:47:23;12.60;;;3.40;;
14276;SDS011;7222;57.346;12.150;2023-02-18T03:49:51;15.07;;;4.03;;
14276;SDS011;7222;57.346;12.150;2023-02-18T03:52:17;16.50;;;3.53;;
14276;SDS011;7222;57.346;12.150;2023-02-18T03:54:46;14.30;;;4.00;;
14276;SDS011;7222;57.346;12.150;2023-02-18T03:57:13;14.43;;;3.93;;
14276;SDS011;7222;57.346;12.150;2023-02-18T03:59:40;15.90;;;3.73;;
14276;SDS011;7222;57.346;12.150;2023-02-18T04:02:07;15.20;;;5.13;;
14276;SDS011;7222;57.346;12.150;2023-02-18T04:04:34;12.30;;;3.83;;
14276;SDS011;7222;57.346;12.150;2023-02-18T04:07:01;16.03;;;4.23;;
14276;SDS011;7222;57.346;12.150;2023-02-18T04:09:27;8.33;;;2.70;;
14276;SDS011;7222;57.346;12.150;2023-02-18T04:11:56;13.97;;;3.93;;
14276;SDS011;7222;57.346;12.150;2023-02-18T04:14:23;20.67;;;3.27;;
14276;SDS011;7222;57.346;12.150;2023-02-18T04:16:50;17.77;;;3.93;;
14276;SDS011;7222;57.346;12.150;2023-02-18T04:19:17;18.83;;;5.47;;
14276;SDS011;7222;57.346;12.150;2023-02-18T04:21:44;12.87;;;3.70;;
14276;SDS011;7222;57.346;12.150;2023-02-18T04:24:11;18.87;;;4.47;;
14276;SDS011;7222;57.346;12.150;2023-02-18T04:26:38;15.63;;;3.90;;
14276;SDS011;7222;57.346;12.150;2023-02-18T04:29:06;13.83;;;4.00;;
14276;SDS011;7222;57.346;12.150;2023-02-18T04:31:33;15.40;;;4.53;;
14276;SDS011;7222;57.346;12.150;2023-02-18T04:34:00;15.47;;;4.60;;
14276;SDS011;7222;57.346;12.150;2023-02-18T04:36:27;15.10;;;4.13;;
14276;SDS011;7222;57.346;12.150;2023-02-18T04:38:54;20.87;;;4.20;;
14276;SDS011;7222;57.346;12.150;2023-02-18T04:41:21;13.93;;;4.47;;
14276;SDS011;7222;57.346;12.150;2023-02-18T04:43:48;22.90;;;4.60;;
14276;SDS011;7222;57.346;12.150;2023-02-18T04:46:16;14.43;;;3.80;;
14276;SDS011;7222;57.346;12.150;2023-02-18T04:48:43;10.07;;;3.20;;
14276;SDS011;7222;57.346;12.150;2023-02-18T04:51:10;24.57;;;3.80;;
14276;SDS011;7222;57.346;12.150;2023-02-18T04:53:37;13.60;;;4.10;;
14276;SDS011;7222;57.346;12.150;2023-02-18T04:56:04;12.70;;;4.47;;
14276;SDS011;7222;57.346;12.150;2023-02-18T04:58:31;14.50;;;4.00;;
14276;SDS011;7222;57.346;12.150;2023-02-18T05:00:59;11.40;;;2.60;;
14276;SDS011;7222;57.346;12.150;2023-02-18T05:03:27;20.83;;;5.17;;
14276;SDS011;7222;57.346;12.150;2023-02-18T05:05:55;16.03;;;3.70;;
14276;SDS011;7222;57.346;12.150;2023-02-18T05:08:22;13.67;;;4.30;;
14276;SDS011;7222;57.346;12.150;2023-02-18T05:10:49;15.57;;;3.40;;
14276;SDS011;7222;57.346;12.150;2023-02-18T05:13:16;16.60;;;3.77;;
14276;SDS011;7222;57.346;12.150;2023-02-18T05:15:43;12.67;;;3.07;;
14276;SDS011;7222;57.346;12.150;2023-02-18T05:18:10;16.67;;;3.60;;
14276;SDS011;7222;57.346;12.150;2023-02-18T05:20:38;10.57;;;2.40;;
14276;SDS011;7222;57.346;12.150;2023-02-18T05:23:05;12.93;;;3.33;;
14276;SDS011;7222;57.346;12.150;2023-02-18T05:25:32;12.03;;;3.37;;
14276;SDS011;7222;57.346;12.150;2023-02-18T05:27:59;11.00;;;3.33;;
14276;SDS011;7222;57.346;12.150;2023-02-18T05:30:26;13.33;;;2.17;;
14276;SDS011;7222;57.346;12.150;2023-02-18T05:32:53;14.67;;;4.43;;
14276;SDS011;7222;57.346;12.150;2023-02-18T05:35:20;13.20;;;4.33;;
14276;SDS011;7222;57.346;12.150;2023-02-18T05:37:48;13.80;;;3.67;;
14276;SDS011;7222;57.346;12.150;2023-02-18T05:40:15;14.20;;;4.03;;
14276;SDS011;7222;57.346;12.150;2023-02-18T05:42:42;14.20;;;3.53;;
14276;SDS011;7222;57.346;12.150;2023-02-18T05:45:09;14.03;;;3.10;;
14276;SDS011;7222;57.346;12.150;2023-02-18T05:47:36;18.00;;;3.77;;
14276;SDS011;7222;57.346;12.150;2023-02-18T05:50:03;14.90;;;4.50;;
14276;SDS011;7222;57.346;12.150;2023-02-18T05:52:31;13.97;;;3.37;;
14276;SDS011;7222;57.346;12.150;2023-02-18T05:54:59;15.93;;;2.50;;
14276;SDS011;7222;57.346;12.150;2023-02-18T05:57:26;12.40;;;2.67;;
14276;SDS011;7222;57.346;12.150;2023-02-18T05:59:53;10.33;;;3.10;;
14276;SDS011;7222;57.346;12.150;2023-02-18T06:02:20;13.00;;;5.07;;
14276;SDS011;7222;57.346;12.150;2023-02-18T06:04:47;15.93;;;3.13;;
14276;SDS011;7222;57.346;12.150;2023-02-18T06:07:14;9.90;;;2.33;;
14276;SDS011;7222;57.346;12.150;2023-02-18T06:09:41;10.73;;;3.20;;
14276;SDS011;7222;57.346;12.150;2023-02-18T06:12:09;10.30;;;2.97;;
14276;SDS011;7222;57.346;12.150;2023-02-18T06:14:36;10.07;;;2.77;;
14276;SDS011;7222;57.346;12.150;2023-02-18T06:17:06;18.57;;;2.90;;
14276;SDS011;7222;57.346;12.150;2023-02-18T06:19:33;11.20;;;3.57;;
14276;SDS011;7222;57.346;12.150;2023-02-18T06:22:00;9.57;;;1.73;;
14276;SDS011;7222;57.346;12.150;2023-02-18T06:24:27;11.50;;;2.30;;
14276;SDS011;7222;57.346;12.150;2023-02-18T06:26:54;10.33;;;2.27;;
14276;SDS011;7222;57.346;12.150;2023-02-18T06:29:23;13.73;;;3.30;;
14276;SDS011;7222;57.346;12.150;2023-02-18T06:31:50;14.10;;;3.87;;
14276;SDS011;7222;57.346;12.150;2023-02-18T06:34:17;15.67;;;3.60;;
14276;SDS011;7222;57.346;12.150;2023-02-18T06:36:44;13.13;;;2.90;;
14276;SDS011;7222;57.346;12.150;2023-02-18T06:39:11;12.33;;;2.17;;
14276;SDS011;7222;57.346;12.150;2023-02-18T06:41:37;14.23;;;3.90;;
14276;SDS011;7222;57.346;12.150;2023-02-18T06:44:05;12.13;;;2.87;;
14276;SDS011;7222;57.346;12.150;2023-02-18T06:46:34;15.90;;;4.17;;
14276;SDS011;7222;57.346;12.150;2023-02-18T06:49:01;14.93;;;3.53;;
14276;SDS011;7222;57.346;12.150;2023-02-18T06:51:28;11.93;;;2.70;;
14276;SDS011;7222;57.346;12.150;2023-02-18T06:53:55;14.93;;;3.30;;
14276;SDS011;7222;57.346;12.150;2023-02-18T06:56:22;11.97;;;3.40;;
14276;SDS011;7222;57.346;12.150;2023-02-18T06:58:49;11.23;;;3.37;;
14276;SDS011;7222;57.346;12.150;2023-02-18T07:01:16;9.53;;;2.83;;
14276;SDS011;7222;57.346;12.150;2023-02-18T07:03:44;8.47;;;2.50;;
14276;SDS011;7222;57.346;12.150;2023-02-18T07:06:11;12.13;;;2.77;;
14276;SDS011;7222;57.346;12.150;2023-02-18T07:08:38;13.57;;;2.80;;
14276;SDS011;7222;57.346;12.150;2023-02-18T07:11:05;9.60;;;3.30;;
14276;SDS011;7222;57.346;12.150;2023-02-18T07:13:32;10.90;;;2.93;;
14276;SDS011;7222;57.346;12.150;2023-02-18T07:15:59;10.40;;;2.90;;
14276;SDS011;7222;57.346;12.150;2023-02-18T07:18:26;16.40;;;3.53;;
14276;SDS011;7222;57.346;12.150;2023-02-18T07:20:55;12.13;;;2.20;;
14276;SDS011;7222;57.346;12.150;2023-02-18T07:23:22;11.80;;;3.10;;
14276;SDS011;7222;57.346;12.150;2023-02-18T07:25:49;11.80;;;3.40;;
14276;SDS011;7222;57.346;12.150;2023-02-18T07:28:16;10.27;;;2.73;;
14276;SDS011;7222;57.346;12.150;2023-02-18T07:30:42;11.30;;;2.83;;
14276;SDS011;7222;57.346;12.150;2023-02-18T07:33:09;10.17;;;2.53;;
14276;SDS011;7222;57.346;12.150;2023-02-18T07:35:38;9.23;;;2.37;;
14276;SDS011;7222;57.346;12.150;2023-02-18T07:38:06;9.33;;;2.60;;
14276;SDS011;7222;57.346;12.150;2023-02-18T07:40:34;12.60;;;3.60;;
14276;SDS011;7222;57.346;12.150;2023-02-18T07:43:01;8.77;;;2.03;;
14276;SDS011;7222;57.346;12.150;2023-02-18T07:45:28;9.33;;;2.40;;
14276;SDS011;7222;57.346;12.150;2023-02-18T07:47:55;13.23;;;3.33;;
14276;SDS011;7222;57.346;12.150;2023-02-18T07:50:22;9.17;;;2.17;;
14276;SDS011;7222;57.346;12.150;2023-02-18T07:52:49;15.07;;;3.10;;
14276;SDS011;7222;57.346;12.150;2023-02-18T07:55:17;4.23;;;1.50;;
14276;SDS011;7222;57.346;12.150;2023-02-18T07:57:44;7.10;;;2.23;;
14276;SDS011;7222;57.346;12.150;2023-02-18T08:00:25;8.70;;;2.00;;
14276;SDS011;7222;57.346;12.150;2023-02-18T08:02:51;9.87;;;2.93;;
14276;SDS011;7222;57.346;12.150;2023-02-18T08:05:18;7.10;;;1.73;;
14276;SDS011;7222;57.346;12.150;2023-02-18T08:07:45;7.20;;;2.27;;
14276;SDS011;7222;57.346;12.150;2023-02-18T08:10:12;6.77;;;2.00;;
14276;SDS011;7222;57.346;12.150;2023-02-18T08:12:41;8.17;;;3.23;;
14276;SDS011;7222;57.346;12.150;2023-02-18T08:15:08;9.10;;;2.17;;
14276;SDS011;7222;57.346;12.150;2023-02-18T08:17:35;10.30;;;2.90;;
14276;SDS011;7222;57.346;12.150;2023-02-18T08:20:02;10.57;;;3.03;;
14276;SDS011;7222;57.346;12.150;2023-02-18T08:22:29;9.20;;;1.93;;
14276;SDS011;7222;57.346;12.150;2023-02-18T08:24:56;11.80;;;3.17;;
14276;SDS011;7222;57.346;12.150;2023-02-18T08:27:23;8.93;;;1.57;;
14276;SDS011;7222;57.346;12.150;2023-02-18T08:29:52;11.93;;;1.97;;
14276;SDS011;7222;57.346;12.150;2023-02-18T08:32:20;10.53;;;3.50;;
14276;SDS011;7222;57.346;12.150;2023-02-18T08:34:47;10.30;;;3.07;;
14276;SDS011;7222;57.346;12.150;2023-02-18T08:37:13;11.97;;;3.77;;
14276;SDS011;7222;57.346;12.150;2023-02-18T08:39:40;6.07;;;2.03;;
14276;SDS011;7222;57.346;12.150;2023-02-18T08:42:08;4.40;;;2.03;;
14276;SDS011;7222;57.346;12.150;2023-02-18T08:44:35;15.07;;;3.20;;
14276;SDS011;7222;57.346;12.150;2023-02-18T08:47:03;10.77;;;2.87;;
14276;SDS011;7222;57.346;12.150;2023-02-18T08:49:30;9.63;;;2.70;;
14276;SDS011;7222;57.346;12.150;2023-02-18T08:51:57;9.17;;;2.70;;
14276;SDS011;7222;57.346;12.150;2023-02-18T08:54:24;10.30;;;2.60;;
14276;SDS011;7222;57.346;12.150;2023-02-18T08:56:52;10.77;;;2.50;;
14276;SDS011;7222;57.346;12.150;2023-02-18T08:59:20;11.87;;;3.07;;
14276;SDS011;7222;57.346;12.150;2023-02-18T09:01:47;9.30;;;2.43;;
14276;SDS011;7222;57.346;12.150;2023-02-18T09:04:15;9.40;;;2.27;;
14276;SDS011;7222;57.346;12.150;2023-02-18T09:06:42;9.77;;;2.53;;
14276;SDS011;7222;57.346;12.150;2023-02-18T09:09:10;8.00;;;1.57;;
14276;SDS011;7222;57.346;12.150;2023-02-18T09:11:37;8.37;;;2.67;;
14276;SDS011;7222;57.346;12.150;2023-02-18T09:14:05;11.60;;;3.00;;
14276;SDS011;7222;57.346;12.150;2023-02-18T09:16:31;12.23;;;2.83;;
14276;SDS011;7222;57.346;12.150;2023-02-18T09:18:58;12.47;;;2.30;;
14276;SDS011;7222;57.346;12.150;2023-02-18T09:21:27;10.00;;;2.27;;
14276;SDS011;7222;57.346;12.150;2023-02-18T09:23:54;11.67;;;3.00;;
14276;SDS011;7222;57.346;12.150;2023-02-18T09:26:21;7.83;;;2.57;;
14276;SDS011;7222;57.346;12.150;2023-02-18T09:28:49;12.80;;;2.97;;
14276;SDS011;7222;57.346;12.150;2023-02-18T09:31:18;7.97;;;2.03;;
14276;SDS011;7222;57.346;12.150;2023-02-18T09:33:47;5.40;;;2.30;;
14276;SDS011;7222;57.346;12.150;2023-02-18T09:36:16;5.40;;;1.90;;
14276;SDS011;7222;57.346;12.150;2023-02-18T09:38:45;9.33;;;2.23;;
14276;SDS011;7222;57.346;12.150;2023-02-18T09:41:14;9.63;;;1.80;;
14276;SDS011;7222;57.346;12.150;2023-02-18T09:43:48;8.07;;;2.20;;
14276;SDS011;7222;57.346;12.150;2023-02-18T09:46:19;7.53;;;1.90;;
14276;SDS011;7222;57.346;12.150;2023-02-18T09:48:48;11.23;;;2.53;;
14276;SDS011;7222;57.346;12.150;2023-02-18T09:51:17;4.63;;;1.73;;
14276;SDS011;7222;57.346;12.150;2023-02-18T09:53:46;7.87;;;1.80;;
14276;SDS011;7222;57.346;12.150;2023-02-18T09:56:14;7.93;;;2.77;;
14276;SDS011;7222;57.346;12.150;2023-02-18T09:58:45;9.43;;;3.00;;
14276;SDS011;7222;57.346;12.150;2023-02-18T10:01:15;11.23;;;3.00;;
14276;SDS011;7222;57.346;12.150;2023-02-18T10:03:50;9.63;;;2.00;;
14276;SDS011;7222;57.346;12.150;2023-02-18T10:06:18;7.13;;;1.53;;
14276;SDS011;7222;57.346;12.150;2023-02-18T10:08:51;7.23;;;2.30;;
14276;SDS011;7222;57.346;12.150;2023-02-18T10:11:21;5.80;;;2.20;;
14276;SDS011;7222;57.346;12.150;2023-02-18T10:13:53;7.33;;;2.43;;
14276;SDS011;7222;57.346;12.150;2023-02-18T10:16:21;11.10;;;2.30;;
14276;SDS011;7222;57.346;12.150;2023-02-18T10:18:50;6.30;;;2.00;;
14276;SDS011;7222;57.346;12.150;2023-02-18T10:21:21;12.83;;;2.77;;
14276;SDS011;7222;57.346;12.150;2023-02-18T10:23:55;7.63;;;2.73;;
14276;SDS011;7222;57.346;12.150;2023-02-18T10:26:26;11.27;;;2.33;;
14276;SDS011;7222;57.346;12.150;2023-02-18T10:28:55;6.80;;;2.10;;
14276;SDS011;7222;57.346;12.150;2023-02-18T10:31:24;10.43;;;2.70;;
14276;SDS011;7222;57.346;12.150;2023-02-18T10:33:58;11.77;;;2.30;;
14276;SDS011;7222;57.346;12.150;2023-02-18T10:36:30;8.33;;;3.23;;
14276;SDS011;7222;57.346;12.150;2023-02-18T10:39:07;5.67;;;1.67;;
14276;SDS011;7222;57.346;12.150;2023-02-18T10:41:48;7.73;;;2.10;;
14276;SDS011;7222;57.346;12.150;2023-02-18T10:44:24;7.73;;;1.90;;
14276;SDS011;7222;57.346;12.150;2023-02-18T10:46:58;8.40;;;2.13;;
14276;SDS011;7222;57.346;12.150;2023-02-18T10:49:41;9.90;;;2.30;;
14276;SDS011;7222;57.346;12.150;2023-02-18T10:52:21;6.63;;;2.40;;
14276;SDS011;7222;57.346;12.150;2023-02-18T10:54:52;10.57;;;2.10;;
14276;SDS011;7222;57.346;12.150;2023-02-18T10:57:25;7.90;;;2.23;;
14276;SDS011;7222;57.346;12.150;2023-02-18T10:59:53;10.07;;;2.83;;
14276;SDS011;7222;57.346;12.150;2023-02-18T11:02:23;9.97;;;2.37;;
14276;SDS011;7222;57.346;12.150;2023-02-18T11:04:54;7.40;;;1.70;;
14276;SDS011;7222;57.346;12.150;2023-02-18T11:07:24;5.77;;;2.07;;
14276;SDS011;7222;57.346;12.150;2023-02-18T11:09:56;10.10;;;1.90;;
14276;SDS011;7222;57.346;12.150;2023-02-18T11:12:26;7.83;;;2.27;;
14276;SDS011;7222;57.346;12.150;2023-02-18T11:15:05;9.57;;;2.60;;
14276;SDS011;7222;57.346;12.150;2023-02-18T11:17:41;5.50;;;2.20;;
14276;SDS011;7222;57.346;12.150;2023-02-18T11:20:21;8.57;;;2.33;;
14276;SDS011;7222;57.346;12.150;2023-02-18T11:22:50;6.33;;;2.73;;
14276;SDS011;7222;57.346;12.150;2023-02-18T11:25:20;6.27;;;2.07;;
14276;SDS011;7222;57.346;12.150;2023-02-18T11:27:48;8.80;;;2.80;;
14276;SDS011;7222;57.346;12.150;2023-02-18T11:30:18;5.27;;;1.77;;
14276;SDS011;7222;57.346;12.150;2023-02-18T11:32:50;8.77;;;1.97;;
14276;SDS011;7222;57.346;12.150;2023-02-18T11:35:21;5.20;;;2.20;;
14276;SDS011;7222;57.346;12.150;2023-02-18T11:37:51;9.13;;;2.63;;
14276;SDS011;7222;57.346;12.150;2023-02-18T11:40:21;3.97;;;1.43;;
14276;SDS011;7222;57.346;12.150;2023-02-18T11:42:50;3.83;;;1.43;;
14276;SDS011;7222;57.346;12.150;2023-02-18T11:45:27;4.17;;;1.80;;
14276;SDS011;7222;57.346;12.150;2023-02-18T11:47:58;6.87;;;1.97;;
14276;SDS011;7222;57.346;12.150;2023-02-18T11:50:29;4.97;;;1.77;;
14276;SDS011;7222;57.346;12.150;2023-02-18T11:52:58;5.70;;;1.73;;
14276;SDS011;7222;57.346;12.150;2023-02-18T11:55:27;7.83;;;1.97;;
14276;SDS011;7222;57.346;12.150;2023-02-18T11:57:57;3.60;;;1.37;;
14276;SDS011;7222;57.346;12.150;2023-02-18T12:00:32;6.77;;;1.57;;
14276;SDS011;7222;57.346;12.150;2023-02-18T12:03:06;7.70;;;2.30;;
14276;SDS011;7222;57.346;12.150;2023-02-18T12:05:39;3.93;;;1.53;;
14276;SDS011;7222;57.346;12.150;2023-02-18T12:08:10;3.60;;;1.07;;
14276;SDS011;7222;57.346;12.150;2023-02-18T12:10:45;7.37;;;1.80;;
14276;SDS011;7222;57.346;12.150;2023-02-18T12:13:19;3.53;;;1.20;;
14276;SDS011;7222;57.346;12.150;2023-02-18T12:15:52;5.73;;;1.93;;
14276;SDS011;7222;57.346;12.150;2023-02-18T12:18:39;6.43;;;1.93;;
14276;SDS011;7222;57.346;12.150;2023-02-18T12:21:28;4.70;;;1.77;;
14276;SDS011;7222;57.346;12.150;2023-02-18T12:24:03;5.87;;;1.63;;
14276;SDS011;7222;57.346;12.150;2023-02-18T12:26:43;8.40;;;1.87;;
14276;SDS011;7222;57.346;12.150;2023-02-18T12:29:26;6.37;;;1.67;;
14276;SDS011;7222;57.346;12.150;2023-02-18T12:35:04;6.83;;;1.10;;
14276;SDS011;7222;57.346;12.150;2023-02-18T12:37:48;4.80;;;1.63;;
14276;SDS011;7222;57.346;12.150;2023-02-18T12:40:32;8.57;;;1.80;;
14276;SDS011;7222;57.346;12.150;2023-02-18T12:43:08;6.13;;;1.10;;
14276;SDS011;7222;57.346;12.150;2023-02-18T12:45:47;4.43;;;1.60;;
14276;SDS011;7222;57.346;12.150;2023-02-18T12:48:37;6.80;;;1.40;;
14276;SDS011;7222;57.346;12.150;2023-02-18T12:51:20;3.57;;;1.30;;
14276;SDS011;7222;57.346;12.150;2023-02-18T12:54:07;4.27;;;1.70;;
14276;SDS011;7222;57.346;12.150;2023-02-18T13:00:08;5.00;;;1.43;;
14276;SDS011;7222;57.346;12.150;2023-02-18T13:03:01;3.00;;;1.33;;
14276;SDS011;7222;57.346;12.150;2023-02-18T13:05:37;2.97;;;1.67;;
14276;SDS011;7222;57.346;12.150;2023-02-18T13:08:26;3.17;;;1.40;;
14276;SDS011;7222;57.346;12.150;2023-02-18T13:11:07;9.67;;;1.97;;
14276;SDS011;7222;57.346;12.150;2023-02-18T13:13:44;5.43;;;1.80;;
14276;SDS011;7222;57.346;12.150;2023-02-18T13:16:20;6.23;;;1.93;;
14276;SDS011;7222;57.346;12.150;2023-02-18T13:18:49;4.30;;;1.27;;
14276;SDS011;7222;57.346;12.150;2023-02-18T13:21:24;3.40;;;1.63;;
14276;SDS011;7222;57.346;12.150;2023-02-18T13:23:52;6.30;;;1.40;;
14276;SDS011;7222;57.346;12.150;2023-02-18T13:26:22;3.93;;;1.40;;
14276;SDS011;7222;57.346;12.150;2023-02-18T13:28:51;5.43;;;1.60;;
14276;SDS011;7222;57.346;12.150;2023-02-18T13:31:30;3.43;;;1.30;;
14276;SDS011;7222;57.346;12.150;2023-02-18T13:34:04;4.23;;;1.23;;
14276;SDS011;7222;57.346;12.150;2023-02-18T13:36:42;4.90;;;1.03;;
14276;SDS011;7222;57.346;12.150;2023-02-18T13:39:18;3.80;;;1.23;;
14276;SDS011;7222;57.346;12.150;2023-02-18T13:41:47;2.97;;;1.13;;
14276;SDS011;7222;57.346;12.150;2023-02-18T13:47:07;3.80;;;1.20;;
14276;SDS011;7222;57.346;12.150;2023-02-18T13:49:36;3.70;;;0.90;;
14276;SDS011;7222;57.346;12.150;2023-02-18T13:52:05;3.47;;;1.07;;
14276;SDS011;7222;57.346;12.150;2023-02-18T13:54:33;5.73;;;1.70;;
14276;SDS011;7222;57.346;12.150;2023-02-18T13:57:12;5.83;;;1.97;;
14276;SDS011;7222;57.346;12.150;2023-02-18T13:59:41;4.73;;;1.20;;
14276;SDS011;7222;57.346;12.150;2023-02-18T14:02:31;6.57;;;1.70;;
14276;SDS011;7222;57.346;12.150;2023-02-18T14:05:19;3.60;;;0.97;;
14276;SDS011;7222;57.346;12.150;2023-02-18T14:07:48;5.43;;;1.30;;
14276;SDS011;7222;57.346;12.150;2023-02-18T14:10:24;3.17;;;0.90;;
14276;SDS011;7222;57.346;12.150;2023-02-18T14:13:00;5.57;;;1.10;;
14276;SDS011;7222;57.346;12.150;2023-02-18T14:15:47;2.33;;;1.20;;
14276;SDS011;7222;57.346;12.150;2023-02-18T14:21:37;2.40;;;0.90;;
14276;SDS011;7222;57.346;12.150;2023-02-18T14:24:09;3.53;;;1.07;;
14276;SDS011;7222;57.346;12.150;2023-02-18T14:26:39;3.43;;;1.13;;
14276;SDS011;7222;57.346;12.150;2023-02-18T14:29:14;5.90;;;1.20;;
14276;SDS011;7222;57.346;12.150;2023-02-18T14:31:47;3.37;;;1.30;;
14276;SDS011;7222;57.346;12.150;2023-02-18T14:37:30;5.33;;;1.47;;
14276;SDS011;7222;57.346;12.150;2023-02-18T14:40:38;4.77;;;1.10;;
14276;SDS011;7222;57.346;12.150;2023-02-18T14:43:23;5.30;;;1.20;;
14276;SDS011;7222;57.346;12.150;2023-02-18T14:46:08;4.73;;;1.20;;
14276;SDS011;7222;57.346;12.150;2023-02-18T14:48:44;4.70;;;1.13;;
14276;SDS011;7222;57.346;12.150;2023-02-18T14:51:26;3.13;;;1.10;;
14276;SDS011;7222;57.346;12.150;2023-02-18T14:53:56;4.03;;;1.23;;
14276;SDS011;7222;57.346;12.150;2023-02-18T14:56:30;6.37;;;1.30;;
14276;SDS011;7222;57.346;12.150;2023-02-18T14:59:02;4.43;;;1.10;;
14276;SDS011;7222;57.346;12.150;2023-02-18T15:01:31;4.57;;;1.03;;
14276;SDS011;7222;57.346;12.150;2023-02-18T15:03:59;5.17;;;1.60;;
14276;SDS011;7222;57.346;12.150;2023-02-18T15:06:30;5.23;;;1.43;;
14276;SDS011;7222;57.346;12.150;2023-02-18T15:08:58;5.83;;;1.43;;
14276;SDS011;7222;57.346;12.150;2023-02-18T15:11:29;5.27;;;0.90;;
14276;SDS011;7222;57.346;12.150;2023-02-18T15:14:02;2.77;;;0.97;;
14276;SDS011;7222;57.346;12.150;2023-02-18T15:16:35;3.83;;;1.90;;
14276;SDS011;7222;57.346;12.150;2023-02-18T15:19:03;3.30;;;0.80;;
14276;SDS011;7222;57.346;12.150;2023-02-18T15:21:36;4.03;;;1.33;;
14276;SDS011;7222;57.346;12.150;2023-02-18T15:24:07;3.00;;;1.40;;
14276;SDS011;7222;57.346;12.150;2023-02-18T15:26:41;3.10;;;0.70;;
14276;SDS011;7222;57.346;12.150;2023-02-18T15:29:14;2.43;;;1.10;;
14276;SDS011;7222;57.346;12.150;2023-02-18T15:31:44;2.97;;;0.93;;